Time;durP1;ratioP1;P1;durP2;ratioP2;P2;SDS_P1;SDS_P2;PMS_P1;PMS_P2;Temp;Humidity;BMP_temperature;BMP_pressure;BME280_temperature;BME280_humidity;BME280_pressure;Samples;Min_cycle;Max_cycle;Signal;HPM_P1;HPM_P2
2023/08/20 00:01:58;;;;;;;32.65;30.95;;;;;;;20.33;100.00;101208.50;5010136;28;20440;-80
2023/08/20 00:04:27;;;;;;;39.22;37.22;;;;;;;20.24;100.00;101210.06;5008238;28;20437;-80
2023/08/20 00:06:54;;;;;;;43.80;41.70;;;;;;;20.18;100.00;101208.41;5010118;28;20128;-81
2023/08/20 00:09:21;;;;;;;50.25;47.95;;;;;;;20.13;100.00;101211.88;5010717;28;20046;-80
2023/08/20 00:11:50;;;;;;;32.97;31.05;;;;;;;19.71;100.00;101203.69;5009884;28;20541;-80
2023/08/20 00:14:18;;;;;;;32.53;30.73;;;;;;;20.10;100.00;101202.44;5007924;28;20506;-80
2023/08/20 00:16:45;;;;;;;37.38;35.58;;;;;;;19.72;100.00;101208.00;5007949;28;20057;-80
2023/08/20 00:19:12;;;;;;;42.33;40.33;;;;;;;20.05;100.00;101202.38;5005284;28;20062;-80
2023/08/20 00:21:42;;;;;;;33.78;31.98;;;;;;;19.69;100.00;101212.03;5006820;28;20050;-80
2023/08/20 00:24:10;;;;;;;34.72;33.00;;;;;;;19.83;100.00;101212.44;5009549;28;20049;-80
2023/08/20 00:26:38;;;;;;;40.83;38.83;;;;;;;19.64;100.00;101210.09;5001420;28;20050;-81
2023/08/20 00:29:06;;;;;;;31.33;29.63;;;;;;;19.78;100.00;101207.00;5000388;28;20042;-80
2023/08/20 00:31:33;;;;;;;33.90;32.30;;;;;;;19.76;100.00;101195.66;5007649;28;20065;-80
2023/08/20 00:34:00;;;;;;;36.20;34.30;;;;;;;19.72;100.00;101208.00;5001318;28;20046;-78
2023/08/20 00:36:26;;;;;;;33.05;31.35;;;;;;;19.49;100.00;101211.81;5004952;28;20042;-78
2023/08/20 00:38:53;;;;;;;32.75;30.75;;;;;;;18.70;100.00;101215.66;5008462;28;20552;-78
2023/08/20 00:41:20;;;;;;;32.38;30.67;;;;;;;18.80;100.00;101218.50;5004679;28;20049;-78
2023/08/20 00:43:47;;;;;;;28.92;27.33;;;;;;;19.05;100.00;101223.41;5002892;28;20553;-78
2023/08/20 00:46:15;;;;;;;33.85;32.15;;;;;;;19.13;100.00;101216.78;5007752;28;20046;-78
2023/08/20 00:48:42;;;;;;;36.95;34.78;;;;;;;19.18;100.00;101223.03;5005358;28;20073;-78
2023/08/20 00:51:09;;;;;;;34.78;32.97;;;;;;;19.09;100.00;101226.41;5004975;28;20046;-78
2023/08/20 00:53:36;;;;;;;33.17;31.33;;;;;;;19.05;100.00;101227.97;5004906;28;20085;-78
2023/08/20 00:56:03;;;;;;;35.22;33.42;;;;;;;18.95;100.00;101237.56;5007850;28;20100;-78
2023/08/20 00:58:31;;;;;;;38.92;36.92;;;;;;;19.13;100.00;101236.44;5006546;28;20437;-80
2023/08/20 01:00:57;;;;;;;38.20;36.22;;;;;;;19.25;100.00;101236.31;5001734;28;20129;-78
2023/08/20 01:03:26;;;;;;;36.92;35.10;;;;;;;19.55;100.00;101225.06;5002673;28;20072;-81
2023/08/20 01:06:08;;;;;;;36.58;34.88;;;;;;;19.50;100.00;101237.66;5003507;28;20532;-78
2023/08/20 01:08:38;;;;;;;39.88;37.97;;;;;;;19.27;100.00;101233.34;5009439;28;20100;-78
2023/08/20 01:11:11;;;;;;;40.08;37.42;;;;;;;19.07;100.00;101239.31;5002531;28;20046;-80
2023/08/20 01:13:37;;;;;;;;;;;;;;;19.21;100.00;101227.94;5005917;28;20046;-81
2023/08/20 01:16:05;;;;;;;40.28;38.17;;;;;;;19.17;100.00;101229.47;5003328;28;19921;-80
2023/08/20 01:18:33;;;;;;;37.53;35.63;;;;;;;19.15;100.00;101225.41;5005259;28;20437;-81
2023/08/20 01:21:05;;;;;;;37.75;35.95;;;;;;;19.22;100.00;101226.03;5001420;28;20045;-81
2023/08/20 01:24:07;;;;;;;33.33;31.52;;;;;;;19.04;100.00;101224.47;5002300;28;20103;-81
2023/08/20 01:26:50;;;;;;;34.22;32.40;;;;;;;18.58;100.00;101231.91;5006449;28;20050;-80
2023/08/20 01:29:19;;;;;;;37.10;35.20;;;;;;;18.94;100.00;101229.72;5004026;28;20050;-80
2023/08/20 01:31:46;;;;;;;35.58;33.88;;;;;;;18.15;100.00;101238.72;5003606;28;20042;-80
2023/08/20 01:34:14;;;;;;;33.15;31.35;;;;;;;18.75;100.00;101237.25;5008736;28;20053;-80
2023/08/20 01:36:41;;;;;;;33.58;31.77;;;;;;;18.81;100.00;101238.16;5008342;28;20046;-81
2023/08/20 01:39:08;;;;;;;33.65;30.98;;;;;;;18.85;100.00;101240.13;5008728;28;20046;-80
2023/08/20 01:41:34;;;;;;;34.45;32.47;;;;;;;18.58;100.00;101229.22;5008898;28;20043;-80
2023/08/20 01:44:01;;;;;;;34.35;32.20;;;;;;;18.19;100.00;101231.81;5007775;28;20048;-81
2023/08/20 01:46:29;;;;;;;33.67;31.88;;;;;;;17.98;100.00;101219.91;5005281;28;20046;-80
2023/08/20 01:48:57;;;;;;;28.85;27.15;;;;;;;18.37;100.00;101227.28;5009410;28;20061;-80
2023/08/20 01:51:23;;;;;;;28.10;26.50;;;;;;;18.01;100.00;101227.50;5003868;28;20050;-80
2023/08/20 01:53:50;;;;;;;35.03;32.75;;;;;;;17.98;100.00;101235.22;5008175;28;20046;-80
2023/08/20 01:56:17;;;;;;;27.38;25.77;;;;;;;17.92;100.00;101230.84;5006210;28;20525;-78
2023/08/20 01:58:44;;;;;;;34.92;33.13;;;;;;;18.46;100.00;101236.56;5007034;28;20061;-77
2023/08/20 02:01:11;;;;;;;33.53;31.73;;;;;;;18.57;100.00;101240.19;5005218;28;20046;-78
2023/08/20 02:03:39;;;;;;;39.70;37.80;;;;;;;18.14;100.00;101233.63;5009319;28;20042;-77
2023/08/20 02:06:06;;;;;;;39.00;37.00;;;;;;;18.23;100.00;101237.53;5003151;28;20510;-79
2023/08/20 02:08:33;;;;;;;40.08;38.22;;;;;;;18.28;100.00;101234.94;5007922;28;20053;-78
2023/08/20 02:11:03;;;;;;;36.40;34.60;;;;;;;18.35;100.00;101232.88;5008186;28;20073;-78
2023/08/20 02:13:31;;;;;;;37.75;35.47;;;;;;;18.16;100.00;101234.19;4993305;28;20438;-77
2023/08/20 02:16:00;;;;;;;41.15;39.25;;;;;;;18.25;100.00;101232.72;4997822;28;20050;-78
2023/08/20 02:18:26;;;;;;;31.75;30.15;;;;;;;18.14;100.00;101234.41;4990973;28;20057;-78
2023/08/20 02:20:55;;;;;;;36.05;34.00;;;;;;;17.85;100.00;101231.78;5005565;28;20046;-78
2023/08/20 02:23:22;;;;;;;49.30;47.10;;;;;;;18.37;100.00;101232.66;5008923;28;20046;-80
2023/08/20 02:25:49;;;;;;;41.50;39.70;;;;;;;18.35;100.00;101235.56;5006254;28;20054;-80
2023/08/20 02:28:15;;;;;;;38.08;36.38;;;;;;;17.98;100.00;101232.53;5003626;28;20524;-80
2023/08/20 02:30:43;;;;;;;38.08;36.28;;;;;;;18.31;100.00;101232.56;5007190;28;20061;-80
2023/08/20 02:33:10;;;;;;;33.65;32.15;;;;;;;17.99;100.00;101231.47;5004939;28;20081;-81
2023/08/20 02:35:37;;;;;;;33.55;32.05;;;;;;;17.60;100.00;101239.34;5005345;28;20047;-80
2023/08/20 02:38:06;;;;;;;33.88;32.38;;;;;;;18.19;100.00;101239.91;5004100;28;20065;-80
2023/08/20 02:40:33;;;;;;;39.35;37.65;;;;;;;18.14;100.00;101233.63;5007981;28;20042;-81
2023/08/20 02:43:00;;;;;;;34.60;33.00;;;;;;;18.16;100.00;101240.38;5008479;28;20045;-80
2023/08/20 02:45:27;;;;;;;34.80;33.10;;;;;;;17.89;100.00;101242.06;5008528;28;20050;-81
2023/08/20 02:47:54;;;;;;;38.63;36.83;;;;;;;17.95;100.00;101239.22;5008035;28;20438;-80
2023/08/20 02:50:21;;;;;;;42.53;40.63;;;;;;;17.93;100.00;101241.31;5008510;28;20052;-80
2023/08/20 02:52:47;;;;;;;39.08;37.17;;;;;;;17.94;100.00;101245.63;5008307;28;20049;-80
2023/08/20 02:55:16;;;;;;;42.55;39.85;;;;;;;17.88;100.00;101251.97;5008098;28;20127;-81
2023/08/20 02:57:42;;;;;;;43.30;41.20;;;;;;;17.94;100.00;101264.44;5003618;28;20549;-80
2023/08/20 03:00:13;;;;;;;29.92;28.42;;;;;;;17.95;100.00;101257.22;5007494;28;20053;-80
2023/08/20 03:02:41;;;;;;;33.03;31.52;;;;;;;17.85;100.00;101253.28;5004137;28;20092;-80
2023/08/20 03:05:08;;;;;;;33.47;31.88;;;;;;;17.86;100.00;101254.09;5008939;28;20403;-80
2023/08/20 03:07:35;;;;;;;37.25;35.45;;;;;;;17.75;100.00;101258.44;5009167;28;20492;-80
2023/08/20 03:10:03;;;;;;;32.88;31.17;;;;;;;17.06;100.00;101252.22;5007261;28;20061;-80
2023/08/20 03:12:32;;;;;;;32.40;30.55;;;;;;;17.38;100.00;101255.31;5004712;28;20088;-80
2023/08/20 03:14:59;;;;;;;31.45;29.85;;;;;;;17.31;100.00;101262.69;5004897;28;20058;-80
2023/08/20 03:17:26;;;;;;;27.70;26.30;;;;;;;17.48;100.00;101263.56;5008959;28;20050;-80
2023/08/20 03:19:56;;;;;;;30.73;29.17;;;;;;;17.56;100.00;101260.50;5008759;28;20069;-80
2023/08/20 03:22:24;;;;;;;24.77;23.38;;;;;;;17.73;100.00;101263.25;5004387;28;20104;-80
2023/08/20 03:24:51;;;;;;;22.15;20.85;;;;;;;17.50;100.00;101255.28;5004292;28;20061;-80
2023/08/20 03:27:18;;;;;;;22.52;21.02;;;;;;;17.52;100.00;101264.72;5006941;28;20049;-80
2023/08/20 03:29:47;;;;;;;21.67;20.38;;;;;;;17.40;100.00;101259.38;5011141;28;20103;-80
2023/08/20 03:32:14;;;;;;;21.17;19.88;;;;;;;17.44;100.00;101261.59;5010952;28;20426;-80
2023/08/20 03:34:41;;;;;;;59.20;18.98;;;;;;;17.25;100.00;101269.81;5009122;28;20053;-80
2023/08/20 03:37:07;;;;;;;20.13;18.73;;;;;;;17.30;100.00;101267.22;5011219;28;20241;-81
2023/08/20 03:39:34;;;;;;;20.98;19.48;;;;;;;17.48;100.00;101265.44;5011886;28;20071;-80
2023/08/20 03:42:01;;;;;;;19.73;18.42;;;;;;;17.42;100.00;101263.69;5009074;28;20042;-80
2023/08/20 03:44:29;;;;;;;20.63;19.33;;;;;;;17.60;100.00;101267.00;5009691;28;20577;-80
2023/08/20 03:46:57;;;;;;;24.15;22.38;;;;;;;17.49;100.00;101272.41;5006889;28;20132;-78
2023/08/20 03:49:24;;;;;;;21.70;20.20;;;;;;;17.57;100.00;101261.31;5005437;28;20489;-78
2023/08/20 03:51:53;;;;;;;21.00;19.70;;;;;;;17.65;100.00;101269.00;5001752;28;20050;-78
2023/08/20 03:54:19;;;;;;;20.30;18.90;;;;;;;17.75;100.00;101261.13;5009485;28;20052;-80
2023/08/20 03:56:46;;;;;;;19.60;18.20;;;;;;;17.89;100.00;101266.25;5005768;28;20057;-80
2023/08/20 03:59:13;;;;;;;19.60;18.27;;;;;;;17.77;100.00;101269.78;5008054;28;20058;-78
2023/08/20 04:01:40;;;;;;;20.25;18.85;;;;;;;17.67;100.00;101263.38;5009381;28;20145;-78
2023/08/20 04:04:09;;;;;;;19.80;18.40;;;;;;;17.89;100.00;101269.75;5007958;28;20446;-78
2023/08/20 04:06:36;;;;;;;19.27;17.92;;;;;;;18.13;100.00;101265.06;5003974;28;20050;-78
2023/08/20 04:09:03;;;;;;;21.17;19.65;;;;;;;18.25;100.00;101257.75;5008098;28;20060;-78
2023/08/20 04:11:30;;;;;;;21.65;20.15;;;;;;;18.35;100.00;101264.34;5007226;28;20694;-78
2023/08/20 04:13:57;;;;;;;20.48;19.08;;;;;;;18.38;100.00;101259.28;5002117;28;20038;-78
2023/08/20 04:16:24;;;;;;;21.33;19.83;;;;;;;18.57;100.00;101264.41;5001261;28;20050;-78
2023/08/20 04:18:51;;;;;;;21.55;20.00;;;;;;;18.68;100.00;101266.19;5007396;28;20060;-81
2023/08/20 04:21:19;;;;;;;21.80;20.10;;;;;;;18.76;100.00;101265.81;5009664;28;20042;-80
2023/08/20 04:23:46;;;;;;;21.17;19.67;;;;;;;19.03;100.00;101265.91;5005838;28;20060;-81
2023/08/20 04:26:13;;;;;;;20.30;18.90;;;;;;;19.04;100.00;101264.84;5006294;28;20526;-80
2023/08/20 04:28:40;;;;;;;20.70;19.30;;;;;;;19.04;100.00;101267.53;5004944;28;20101;-81
2023/08/20 04:31:07;;;;;;;20.60;19.20;;;;;;;19.17;100.00;101269.06;5009872;28;20038;-81
2023/08/20 04:33:34;;;;;;;21.02;19.42;;;;;;;19.03;100.00;101259.69;5004083;28;20434;-78
2023/08/20 04:36:03;;;;;;;22.92;21.38;;;;;;;18.94;100.00;101262.84;5008715;28;20422;-80
2023/08/20 04:38:31;;;;;;;21.88;20.38;;;;;;;19.23;100.00;101268.06;5008729;28;20045;-80
2023/08/20 04:40:58;;;;;;;22.00;20.40;;;;;;;19.19;100.00;101259.66;5010166;28;20065;-78
2023/08/20 04:43:25;;;;;;;23.45;21.75;;;;;;;19.16;100.00;101264.75;5010175;28;20049;-80
2023/08/20 04:45:51;;;;;;;22.05;20.55;;;;;;;19.26;100.00;101264.84;5010126;28;20049;-80
2023/08/20 04:48:18;;;;;;;21.38;19.98;;;;;;;19.39;100.00;101274.44;5005335;28;20052;-80
2023/08/20 04:50:46;;;;;;;22.20;20.40;;;;;;;19.67;100.00;101266.19;5009344;28;20078;-80
2023/08/20 04:53:12;;;;;;;22.40;20.75;;;;;;;19.70;100.00;101267.56;5010186;28;20441;-80
2023/08/20 04:55:41;;;;;;;23.05;20.95;;;;;;;19.74;100.00;101265.97;5009896;28;20072;-78
2023/08/20 04:58:07;;;;;;;21.00;19.42;;;;;;;19.75;100.00;101261.41;5007741;28;20060;-80
2023/08/20 05:00:34;;;;;;;19.77;18.38;;;;;;;19.65;100.00;101270.19;5004907;28;20096;-80
2023/08/20 05:03:01;;;;;;;19.48;18.17;;;;;;;19.81;100.00;101263.88;5007800;28;20060;-80
2023/08/20 05:05:28;;;;;;;20.08;18.67;;;;;;;19.95;100.00;101253.53;5007217;28;20443;-80
2023/08/20 05:07:55;;;;;;;19.20;17.85;;;;;;;20.22;100.00;101263.47;5008933;28;20540;-80
2023/08/20 05:10:22;;;;;;;20.85;19.35;;;;;;;20.21;100.00;101262.66;5009326;28;20046;-78
2023/08/20 05:12:50;;;;;;;20.63;19.20;;;;;;;20.44;100.00;101266.06;4659400;28;10000146;-78
2023/08/20 05:15:17;;;;;;;21.38;19.88;;;;;;;20.58;100.00;101256.50;5002675;28;20533;-77
2023/08/20 05:17:43;;;;;;;23.65;21.50;;;;;;;20.55;100.00;101262.41;5000980;28;20053;-78
2023/08/20 05:20:11;;;;;;;22.40;20.70;;;;;;;20.74;100.00;101258.19;5000055;28;20060;-78
2023/08/20 05:22:38;;;;;;;23.08;20.92;;;;;;;20.80;100.00;101259.88;5002975;28;20498;-79
2023/08/20 05:25:05;;;;;;;23.00;21.30;;;;;;;21.04;100.00;101268.38;5005954;28;20494;-80
2023/08/20 05:27:32;;;;;;;22.27;20.63;;;;;;;21.09;100.00;101270.28;5005203;28;20068;-78
2023/08/20 05:30:00;;;;;;;22.00;20.50;;;;;;;21.34;100.00;101271.47;4999093;28;20062;-78
2023/08/20 05:32:27;;;;;;;23.00;21.30;;;;;;;21.43;100.00;101270.72;5002881;28;20533;-78
2023/08/20 05:34:54;;;;;;;21.90;20.50;;;;;;;21.62;100.00;101272.94;4995121;28;20589;-78
2023/08/20 05:37:21;;;;;;;22.70;21.00;;;;;;;21.79;100.00;101268.13;5001380;28;20042;-79
2023/08/20 05:39:47;;;;;;;22.67;20.98;;;;;;;21.89;100.00;101275.44;4999133;28;20442;-80
2023/08/20 05:42:14;;;;;;;24.90;23.00;;;;;;;21.95;100.00;101269.75;5002639;28;20041;-78
2023/08/20 05:44:42;;;;;;;24.08;22.48;;;;;;;22.11;100.00;101267.06;5002811;28;20127;-78
2023/08/20 05:47:10;;;;;;;24.00;22.50;;;;;;;22.34;100.00;101263.06;5002012;28;20053;-78
2023/08/20 05:49:37;;;;;;;24.40;22.73;;;;;;;22.40;100.00;101264.69;5002655;28;20050;-80
2023/08/20 05:52:04;;;;;;;25.42;23.52;;;;;;;22.71;100.00;101256.50;5004509;28;20053;-78
2023/08/20 05:54:31;;;;;;;41.53;27.83;;;;;;;22.72;100.00;101266.25;5004453;28;20450;-81
2023/08/20 05:56:58;;;;;;;27.10;25.00;;;;;;;23.02;100.00;101260.78;5002735;28;20062;-81
2023/08/20 05:59:25;;;;;;;27.52;25.50;;;;;;;22.72;100.00;101258.13;5004720;28;20436;-81
2023/08/20 06:01:54;;;;;;;24.77;22.98;;;;;;;23.09;100.00;101261.31;5003482;28;20054;-81
2023/08/20 06:04:22;;;;;;;24.08;21.92;;;;;;;23.71;100.00;101261.84;5004476;28;20476;-80
2023/08/20 06:06:49;;;;;;;23.05;21.05;;;;;;;23.95;100.00;101267.38;5002289;28;20513;-80
2023/08/20 06:09:16;;;;;;;24.77;22.20;;;;;;;24.00;100.00;101258.41;5004750;28;20046;-80
2023/08/20 06:11:44;;;;;;;22.90;21.10;;;;;;;24.15;100.00;101257.47;5004479;28;20073;-80
2023/08/20 06:14:11;;;;;;;24.05;21.98;;;;;;;24.35;100.00;101257.28;4998179;28;20445;-80
2023/08/20 06:16:38;;;;;;;20.90;19.20;;;;;;;24.55;100.00;101258.22;5001318;28;20137;-81
2023/08/20 06:19:04;;;;;;;19.67;18.20;;;;;;;24.72;100.00;101249.63;5003195;28;20052;-78
2023/08/20 06:21:33;;;;;;;21.65;19.95;;;;;;;25.12;100.00;101251.88;5004209;28;20058;-81
2023/08/20 06:24:00;;;;;;;23.50;21.70;;;;;;;25.23;100.00;101249.84;5003542;28;20521;-78
2023/08/20 06:26:26;;;;;;;24.15;22.40;;;;;;;25.32;100.00;101256.25;5000616;28;20061;-80
2023/08/20 06:28:53;;;;;;;23.75;21.95;;;;;;;25.41;100.00;101248.25;5002516;28;20600;-81
2023/08/20 06:31:20;;;;;;;22.50;20.85;;;;;;;25.64;100.00;101248.50;5004589;28;20551;-81
2023/08/20 06:33:48;;;;;;;23.42;21.58;;;;;;;25.67;100.00;101259.59;5008270;28;20430;-81
2023/08/20 06:36:15;;;;;;;22.60;20.90;;;;;;;26.06;100.00;101253.06;5008417;28;20484;-81
2023/08/20 06:38:43;;;;;;;21.88;19.95;;;;;;;26.48;100.00;101262.16;5009107;28;20050;-81
2023/08/20 06:41:10;;;;;;;21.30;19.80;;;;;;;26.92;100.00;101255.34;5010926;28;20422;-81
2023/08/20 06:43:37;;;;;;;21.77;19.90;;;;;;;27.29;100.00;101262.50;5011652;28;20046;-81
2023/08/20 06:46:03;;;;;;;29.90;21.02;;;;;;;27.42;100.00;101262.81;5008770;28;20057;-81
2023/08/20 06:48:30;;;;;;;23.15;21.27;;;;;;;27.52;100.00;101255.19;5010485;28;20046;-81
2023/08/20 06:50:57;;;;;;;23.77;21.67;;;;;;;27.75;100.00;101263.44;5011657;28;20053;-81
2023/08/20 06:53:24;;;;;;;24.25;22.35;;;;;;;27.68;100.00;101260.28;5008048;28;20057;-81
2023/08/20 06:55:52;;;;;;;22.20;20.08;;;;;;;27.93;100.00;101256.19;5008992;28;20042;-81
2023/08/20 06:58:19;;;;;;;22.00;20.30;;;;;;;27.78;100.00;101252.72;4999251;28;20050;-81
2023/08/20 07:00:46;;;;;;;23.00;21.15;;;;;;;28.05;100.00;101260.00;5006616;28;20044;-82
2023/08/20 07:03:13;;;;;;;21.52;19.73;;;;;;;28.15;100.00;101258.13;5009056;28;20050;-81
2023/08/20 07:05:39;;;;;;;21.35;19.65;;;;;;;28.08;100.00;101256.63;5007477;28;20060;-81
2023/08/20 07:08:06;;;;;;;24.48;22.15;;;;;;;28.29;100.00;101265.13;5010105;28;20069;-82
2023/08/20 07:10:33;;;;;;;23.45;21.52;;;;;;;28.36;100.00;101266.59;5003766;28;20053;-81
2023/08/20 07:13:01;;;;;;;22.30;20.23;;;;;;;28.50;100.00;101259.13;5008483;28;20053;-78
2023/08/20 07:15:28;;;;;;;22.85;21.05;;;;;;;28.74;100.00;101265.03;5005807;28;20252;-78
2023/08/20 07:17:55;;;;;;;22.73;21.02;;;;;;;28.91;100.00;101267.03;5009699;28;20050;-80
2023/08/20 07:20:22;;;;;;;23.02;21.33;;;;;;;29.28;100.00;101267.63;5011782;28;20056;-80
2023/08/20 07:22:49;;;;;;;22.58;20.77;;;;;;;29.67;100.00;101261.25;5007681;28;20058;-78
2023/08/20 07:25:16;;;;;;;22.60;20.90;;;;;;;29.48;100.00;101263.50;5009385;28;20042;-78
2023/08/20 07:27:44;;;;;;;23.00;21.30;;;;;;;29.50;100.00;101258.47;5006666;28;20053;-81
2023/08/20 07:30:12;;;;;;;23.80;22.02;;;;;;;29.60;100.00;101260.13;5004752;28;20120;-81
2023/08/20 07:32:39;;;;;;;23.40;21.40;;;;;;;29.70;100.00;101259.03;5009043;28;20058;-81
2023/08/20 07:35:07;;;;;;;36.88;22.08;;;;;;;29.38;100.00;101258.31;5002350;28;20049;-81
2023/08/20 07:37:33;;;;;;;23.30;21.50;;;;;;;29.34;100.00;101254.63;5006691;28;20132;-81
2023/08/20 07:40:00;;;;;;;23.52;21.73;;;;;;;29.69;100.00;101258.22;5009348;28;20053;-82
2023/08/20 07:42:27;;;;;;;24.83;22.83;;;;;;;29.74;100.00;101252.56;5001318;28;20042;-82
2023/08/20 07:44:54;;;;;;;23.95;22.15;;;;;;;30.07;100.00;101254.78;5007841;28;20430;-81
2023/08/20 07:47:22;;;;;;;25.95;23.33;;;;;;;29.57;100.00;101247.09;5002556;28;20046;-81
2023/08/20 07:49:49;;;;;;;23.88;21.98;;;;;;;29.60;100.00;101247.22;4999466;28;20057;-81
2023/08/20 07:52:16;;;;;;;23.23;21.23;;;;;;;29.99;100.00;101244.69;5007296;28;20046;-81
2023/08/20 07:54:44;;;;;;;25.38;22.77;;;;;;;29.54;100.00;101247.72;5007379;28;20053;-82
2023/08/20 07:57:11;;;;;;;23.23;21.42;;;;;;;29.88;100.00;101236.78;5008436;28;20477;-78
2023/08/20 07:59:38;;;;;;;23.73;21.83;;;;;;;30.23;100.00;101244.97;5009700;28;20451;-78
2023/08/20 08:02:06;;;;;;;22.60;20.70;;;;;;;30.29;100.00;101240.94;5010263;28;20046;-78
2023/08/20 08:04:35;;;;;;;21.48;19.77;;;;;;;30.00;100.00;101230.63;5009947;28;20453;-78
2023/08/20 08:07:01;;;;;;;22.50;20.65;;;;;;;29.58;100.00;101230.31;5009794;28;20070;-81
2023/08/20 08:09:30;;;;;;;26.40;24.40;;;;;;;30.26;100.00;101238.84;5009047;28;20049;-78
2023/08/20 08:11:57;;;;;;;25.10;22.35;;;;;;;30.31;100.00;101238.66;5007030;28;20049;-82
2023/08/20 08:14:25;;;;;;;25.95;24.05;;;;;;;30.31;100.00;101237.84;5007138;28;20790;-78
2023/08/20 08:16:55;;;;;;;25.55;23.25;;;;;;;30.01;100.00;101225.97;5008225;28;20060;-79
2023/08/20 08:19:21;;;;;;;26.05;23.95;;;;;;;30.17;100.00;101228.97;5004715;28;20049;-82
2023/08/20 08:21:52;;;;;;;24.55;22.85;;;;;;;30.49;100.00;101225.69;5006390;28;20058;-78
2023/08/20 08:24:19;;;;;;;23.13;21.33;;;;;;;30.93;100.00;101220.84;5007656;28;20045;-81
2023/08/20 08:26:46;;;;;;;22.15;20.45;;;;;;;31.15;100.00;101216.19;5003181;28;20393;-78
2023/08/20 08:29:13;;;;;;;23.10;21.40;;;;;;;31.35;100.00;101220.09;5003470;28;20310;-81
2023/08/20 08:31:40;;;;;;;23.13;21.33;;;;;;;30.70;100.00;101220.28;5007932;28;20514;-78
2023/08/20 08:34:07;;;;;;;23.52;21.50;;;;;;;29.95;100.00;101224.53;5009290;28;20437;-78
2023/08/20 08:36:33;;;;;;;27.90;25.90;;;;;;;30.47;100.00;101219.75;5005190;28;20056;-78
2023/08/20 08:39:02;;;;;;;26.13;23.80;;;;;;;30.56;100.00;101220.53;5008538;28;20076;-78
2023/08/20 08:41:30;;;;;;;23.55;21.75;;;;;;;30.19;100.00;101232.22;5008280;28;20506;-82
2023/08/20 08:43:57;;;;;;;25.65;23.75;;;;;;;31.16;100.00;101220.53;5006209;28;20061;-82
2023/08/20 08:46:26;;;;;;;33.58;31.17;;;;;;;30.32;100.00;101223.03;4998224;28;20660;-83
2023/08/20 08:48:53;;;;;;;31.20;29.00;;;;;;;31.61;100.00;101215.19;5004233;28;20045;-81
2023/08/20 08:51:20;;;;;;;26.40;24.50;;;;;;;31.34;100.00;101215.72;5002997;28;20057;-82
2023/08/20 08:53:47;;;;;;;26.52;24.27;;;;;;;31.54;100.00;101217.69;5006532;28;20050;-82
2023/08/20 08:56:16;;;;;;;24.83;22.92;;;;;;;32.88;80.89;101199.88;5006653;28;20054;-78
2023/08/20 08:58:42;;;;;;;25.30;23.40;;;;;;;31.68;100.00;101211.88;5008220;28;20050;-77
2023/08/20 09:01:09;;;;;;;27.98;26.08;;;;;;;31.61;100.00;101214.38;5004904;28;20050;-78
2023/08/20 09:03:36;;;;;;;28.45;26.42;;;;;;;31.29;100.00;101211.25;5005771;28;20054;-78
2023/08/20 09:06:08;;;;;;;27.50;25.40;;;;;;;32.41;95.49;101214.06;5005162;28;20049;-81
2023/08/20 09:08:35;;;;;;;27.60;25.35;;;;;;;33.04;84.25;101202.72;5004695;28;20042;-81
2023/08/20 09:11:03;;;;;;;28.13;25.77;;;;;;;31.99;100.00;101208.72;5001546;28;20045;-78
2023/08/20 09:13:37;;;;;;;27.65;23.65;;;;;;;31.44;100.00;101207.91;5001624;28;20161;-77
2023/08/20 09:16:07;;;;;;;24.30;22.60;;;;;;;31.66;100.00;101204.00;5004704;28;20418;-77
2023/08/20 09:18:38;;;;;;;30.30;28.20;;;;;;;32.89;100.00;101184.97;5008162;28;20046;-78
2023/08/20 09:21:08;;;;;;;33.08;30.38;;;;;;;32.22;100.00;101197.31;5009881;28;20046;-82
2023/08/20 09:23:35;;;;;;;32.15;30.05;;;;;;;31.93;100.00;101190.84;5008257;28;20120;-82
2023/08/20 09:26:03;;;;;;;31.38;29.35;;;;;;;32.72;100.00;101196.22;5008678;28;20128;-82
2023/08/20 09:28:29;;;;;;;29.05;27.05;;;;;;;32.32;100.00;101188.63;4998050;28;20436;-81
2023/08/20 09:31:02;;;;;;;27.15;25.25;;;;;;;32.24;100.00;101200.53;5002726;28;20172;-83
2023/08/20 09:33:29;;;;;;;27.10;25.27;;;;;;;31.93;100.00;101193.59;5008071;28;20046;-81
2023/08/20 09:35:56;;;;;;;29.52;27.45;;;;;;;33.72;88.37;101183.47;5006043;28;20544;-82
2023/08/20 09:38:24;;;;;;;28.65;26.75;;;;;;;32.59;100.00;101185.25;5008665;28;20042;-77
2023/08/20 09:40:56;;;;;;;29.77;27.88;;;;;;;32.56;100.00;101190.63;5005408;28;20053;-77
2023/08/20 09:43:27;;;;;;;30.00;27.80;;;;;;;33.73;90.93;101178.78;5009184;28;20082;-82
2023/08/20 09:45:57;;;;;;;27.88;25.77;;;;;;;33.41;99.91;101181.44;5004447;28;20421;-82
2023/08/20 09:48:29;;;;;;;24.40;22.50;;;;;;;32.79;100.00;101177.97;5004063;28;20507;-82
2023/08/20 09:51:00;;;;;;;26.60;24.70;;;;;;;32.65;97.45;101179.50;5002526;28;20533;-82
2023/08/20 09:53:35;;;;;;;26.13;24.23;;;;;;;33.42;95.43;101176.72;5006482;28;20509;-82
2023/08/20 09:56:10;;;;;;;26.77;24.88;;;;;;;34.34;82.76;101172.88;5007314;28;20042;-81
2023/08/20 09:58:38;;;;;;;31.73;29.60;;;;;;;33.77;93.47;101176.09;5003185;28;20041;-82
2023/08/20 10:01:06;;;;;;;33.38;30.98;;;;;;;35.37;73.81;101162.56;5007236;28;20520;-81
2023/08/20 10:03:35;;;;;;;26.23;24.33;;;;;;;35.87;66.14;101169.06;5007975;28;20424;-78
2023/08/20 10:06:03;;;;;;;25.38;23.48;;;;;;;34.73;80.81;101158.44;5008791;28;20042;-77
2023/08/20 10:08:30;;;;;;;28.55;26.35;;;;;;;35.10;80.05;101151.41;5006122;28;20054;-78
2023/08/20 10:10:57;;;;;;;22.60;20.70;;;;;;;34.20;84.46;101159.56;5010019;28;20046;-77
2023/08/20 10:13:24;;;;;;;27.98;25.77;;;;;;;33.50;98.04;101157.31;5010207;28;20053;-78
2023/08/20 10:15:52;;;;;;;23.73;21.92;;;;;;;34.50;88.06;101152.78;5009384;28;20049;-82
2023/08/20 10:18:20;;;;;;;23.25;21.45;;;;;;;34.14;90.21;101161.00;5009288;28;20077;-82
2023/08/20 10:20:50;;;;;;;27.33;25.23;;;;;;;33.27;98.83;101159.00;5009052;28;20501;-78
2023/08/20 10:23:22;;;;;;;36.55;23.58;;;;;;;32.68;100.00;101162.31;5010373;28;20045;-78
2023/08/20 10:25:49;;;;;;;;;;;;;;;34.05;85.62;101157.63;5011133;28;20120;-81
2023/08/20 10:28:22;;;;;;;24.88;22.92;;;;;;;34.50;87.88;101158.31;5007422;28;20365;-78
2023/08/20 10:31:09;;;;;;;27.75;25.85;;;;;;;33.86;85.32;101144.50;4994711;28;20506;-82
2023/08/20 10:33:36;;;;;;;29.75;27.65;;;;;;;34.42;86.14;101135.28;5010996;28;20422;-77
2023/08/20 10:36:16;;;;;;;28.35;26.35;;;;;;;33.39;99.22;101141.63;5009484;28;20056;-78
2023/08/20 10:38:45;;;;;;;29.02;27.13;;;;;;;32.96;100.00;101129.38;5007243;28;20060;-82
2023/08/20 10:41:12;;;;;;;27.58;25.67;;;;;;;34.07;89.13;101140.72;5008721;28;20488;-82
2023/08/20 10:43:41;;;;;;;27.63;25.63;;;;;;;33.88;84.75;101133.91;5009185;28;20038;-82
2023/08/20 10:46:10;;;;;;;29.27;27.27;;;;;;;34.11;85.55;101130.59;5013002;28;20529;-82
2023/08/20 10:48:39;;;;;;;28.25;26.35;;;;;;;34.91;77.21;101112.72;5012771;28;20062;-81
2023/08/20 10:51:15;;;;;;;31.10;28.25;;;;;;;33.78;93.82;101125.41;5011934;28;20058;-82
2023/08/20 10:53:44;;;;;;;29.00;27.00;;;;;;;34.22;84.18;101106.81;5009769;28;20115;-82
2023/08/20 10:56:13;;;;;;;30.08;27.88;;;;;;;33.45;98.88;101112.69;5009093;28;20057;-83
2023/08/20 10:58:43;;;;;;;28.83;26.83;;;;;;;33.40;100.00;101121.22;5009404;28;20050;-82
2023/08/20 11:01:27;;;;;;;26.90;24.95;;;;;;;36.09;73.46;101105.91;5011176;28;20517;-82
2023/08/20 11:03:54;;;;;;;27.27;25.33;;;;;;;34.61;85.83;101118.00;5004690;28;20426;-77
2023/08/20 11:06:25;;;;;;;29.92;27.73;;;;;;;34.80;74.46;101107.00;5012628;28;20521;-78